sensor_id;sensor_type;location;lat;lon;timestamp;temperature;humidity
5938;DHT22;2994;51.220;4.412;2022-07-23T00:00:52;20.35;66.67
5938;DHT22;2994;51.220;4.412;2022-07-23T00:03:17;20.34;66.62
5938;DHT22;2994;51.220;4.412;2022-07-23T00:05:43;20.32;66.36
5938;DHT22;2994;51.220;4.412;2022-07-23T00:08:08;20.32;66.26
5938;DHT22;2994;51.220;4.412;2022-07-23T00:10:34;20.32;66.58
5938;DHT22;2994;51.220;4.412;2022-07-23T00:13:00;20.29;66.87
5938;DHT22;2994;51.220;4.412;2022-07-23T00:15:26;20.25;66.29
5938;DHT22;2994;51.220;4.412;2022-07-23T00:17:51;20.28;66.69
5938;DHT22;2994;51.220;4.412;2022-07-23T00:20:17;20.22;66.75
5938;DHT22;2994;51.220;4.412;2022-07-23T00:22:54;20.22;66.42
5938;DHT22;2994;51.220;4.412;2022-07-23T00:25:21;20.22;67.01
5938;DHT22;2994;51.220;4.412;2022-07-23T00:27:47;20.17;66.52
5938;DHT22;2994;51.220;4.412;2022-07-23T00:30:13;20.15;65.97
5938;DHT22;2994;51.220;4.412;2022-07-23T00:32:49;20.15;66.65
5938;DHT22;2994;51.220;4.412;2022-07-23T00:35:16;20.13;66.32
5938;DHT22;2994;51.220;4.412;2022-07-23T00:37:42;20.12;66.88
5938;DHT22;2994;51.220;4.412;2022-07-23T00:40:08;20.10;66.54
5938;DHT22;2994;51.220;4.412;2022-07-23T00:42:34;20.05;66.88
5938;DHT22;2994;51.220;4.412;2022-07-23T00:44:59;20.04;66.81
5938;DHT22;2994;51.220;4.412;2022-07-23T00:47:24;20.04;66.42
5938;DHT22;2994;51.220;4.412;2022-07-23T00:49:50;20.01;66.65
5938;DHT22;2994;51.220;4.412;2022-07-23T00:52:15;20.02;66.85
5938;DHT22;2994;51.220;4.412;2022-07-23T00:54:41;20.00;66.81
5938;DHT22;2994;51.220;4.412;2022-07-23T00:57:06;20.01;66.65
5938;DHT22;2994;51.220;4.412;2022-07-23T00:59:32;19.99;67.01
5938;DHT22;2994;51.220;4.412;2022-07-23T01:01:57;19.98;66.84
5938;DHT22;2994;51.220;4.412;2022-07-23T01:04:23;19.97;67.36
5938;DHT22;2994;51.220;4.412;2022-07-23T01:06:48;19.95;66.60
5938;DHT22;2994;51.220;4.412;2022-07-23T01:09:14;19.96;67.15
5938;DHT22;2994;51.220;4.412;2022-07-23T01:11:41;19.95;67.30
5938;DHT22;2994;51.220;4.412;2022-07-23T01:14:17;19.92;67.37
5938;DHT22;2994;51.220;4.412;2022-07-23T01:16:44;19.90;67.50
5938;DHT22;2994;51.220;4.412;2022-07-23T01:19:10;19.90;67.44
5938;DHT22;2994;51.220;4.412;2022-07-23T01:21:43;19.89;67.75
5938;DHT22;2994;51.220;4.412;2022-07-23T01:24:10;19.86;67.51
5938;DHT22;2994;51.220;4.412;2022-07-23T01:26:36;19.86;67.33
5938;DHT22;2994;51.220;4.412;2022-07-23T01:29:02;19.86;67.74
5938;DHT22;2994;51.220;4.412;2022-07-23T01:31:27;19.85;67.46
5938;DHT22;2994;51.220;4.412;2022-07-23T01:33:53;19.83;67.52
5938;DHT22;2994;51.220;4.412;2022-07-23T01:36:18;19.83;67.78
5938;DHT22;2994;51.220;4.412;2022-07-23T01:38:44;19.81;67.71
5938;DHT22;2994;51.220;4.412;2022-07-23T01:41:09;19.76;67.68
5938;DHT22;2994;51.220;4.412;2022-07-23T01:43:35;19.77;68.10
5938;DHT22;2994;51.220;4.412;2022-07-23T01:46:00;19.75;67.88
5938;DHT22;2994;51.220;4.412;2022-07-23T01:48:26;19.71;68.14
5938;DHT22;2994;51.220;4.412;2022-07-23T01:50:51;19.71;68.01
5938;DHT22;2994;51.220;4.412;2022-07-23T01:53:17;19.70;68.08
5938;DHT22;2994;51.220;4.412;2022-07-23T01:55:42;19.67;68.19
5938;DHT22;2994;51.220;4.412;2022-07-23T01:58:08;19.67;68.02
5938;DHT22;2994;51.220;4.412;2022-07-23T02:00:34;19.62;68.04
5938;DHT22;2994;51.220;4.412;2022-07-23T02:03:00;19.66;68.04
5938;DHT22;2994;51.220;4.412;2022-07-23T02:05:25;19.63;67.89
5938;DHT22;2994;51.220;4.412;2022-07-23T02:07:51;19.65;67.91
5938;DHT22;2994;51.220;4.412;2022-07-23T02:10:17;19.61;68.26
5938;DHT22;2994;51.220;4.412;2022-07-23T02:12:43;19.61;67.75
5938;DHT22;2994;51.220;4.412;2022-07-23T02:15:08;19.60;67.75
5938;DHT22;2994;51.220;4.412;2022-07-23T02:17:34;19.58;68.13
5938;DHT22;2994;51.220;4.412;2022-07-23T02:19:59;19.57;68.36
5938;DHT22;2994;51.220;4.412;2022-07-23T02:22:24;19.55;67.99
5938;DHT22;2994;51.220;4.412;2022-07-23T02:24:50;19.53;67.54
5938;DHT22;2994;51.220;4.412;2022-07-23T02:27:16;19.51;68.50
5938;DHT22;2994;51.220;4.412;2022-07-23T02:29:41;19.51;68.53
5938;DHT22;2994;51.220;4.412;2022-07-23T02:32:07;19.50;68.61
5938;DHT22;2994;51.220;4.412;2022-07-23T02:34:32;19.50;68.45
5938;DHT22;2994;51.220;4.412;2022-07-23T02:36:57;19.50;68.53
5938;DHT22;2994;51.220;4.412;2022-07-23T02:39:23;19.45;68.20
5938;DHT22;2994;51.220;4.412;2022-07-23T02:41:48;19.46;68.05
5938;DHT22;2994;51.220;4.412;2022-07-23T02:44:14;19.46;68.23
5938;DHT22;2994;51.220;4.412;2022-07-23T02:46:39;19.45;68.02
5938;DHT22;2994;51.220;4.412;2022-07-23T02:49:05;19.43;68.12
5938;DHT22;2994;51.220;4.412;2022-07-23T02:51:30;19.44;67.84
5938;DHT22;2994;51.220;4.412;2022-07-23T02:53:56;19.43;68.16
5938;DHT22;2994;51.220;4.412;2022-07-23T02:56:21;19.41;68.33
5938;DHT22;2994;51.220;4.412;2022-07-23T02:58:47;19.41;68.94
5938;DHT22;2994;51.220;4.412;2022-07-23T03:01:12;19.42;68.38
5938;DHT22;2994;51.220;4.412;2022-07-23T03:03:38;19.38;68.52
5938;DHT22;2994;51.220;4.412;2022-07-23T03:06:03;19.36;68.52
5938;DHT22;2994;51.220;4.412;2022-07-23T03:08:29;19.36;68.12
5938;DHT22;2994;51.220;4.412;2022-07-23T03:10:54;19.32;68.21
5938;DHT22;2994;51.220;4.412;2022-07-23T03:13:19;19.31;68.50
5938;DHT22;2994;51.220;4.412;2022-07-23T03:15:45;19.31;68.33
5938;DHT22;2994;51.220;4.412;2022-07-23T03:18:10;19.27;68.39
5938;DHT22;2994;51.220;4.412;2022-07-23T03:20:36;19.25;68.66
5938;DHT22;2994;51.220;4.412;2022-07-23T03:23:02;19.23;68.58
5938;DHT22;2994;51.220;4.412;2022-07-23T03:25:27;19.25;68.90
5938;DHT22;2994;51.220;4.412;2022-07-23T03:27:53;19.23;68.79
5938;DHT22;2994;51.220;4.412;2022-07-23T03:30:18;19.22;68.85
5938;DHT22;2994;51.220;4.412;2022-07-23T03:32:44;19.22;68.86
5938;DHT22;2994;51.220;4.412;2022-07-23T03:35:09;19.17;69.10
5938;DHT22;2994;51.220;4.412;2022-07-23T03:37:35;19.17;69.13
5938;DHT22;2994;51.220;4.412;2022-07-23T03:40:01;19.16;69.29
5938;DHT22;2994;51.220;4.412;2022-07-23T03:42:26;19.13;69.08
5938;DHT22;2994;51.220;4.412;2022-07-23T03:44:52;19.10;69.10
5938;DHT22;2994;51.220;4.412;2022-07-23T03:47:17;19.09;69.14
5938;DHT22;2994;51.220;4.412;2022-07-23T03:49:47;19.08;69.79
5938;DHT22;2994;51.220;4.412;2022-07-23T03:52:12;19.06;69.55
5938;DHT22;2994;51.220;4.412;2022-07-23T03:54:37;19.06;69.04
5938;DHT22;2994;51.220;4.412;2022-07-23T03:57:03;19.00;69.04
5938;DHT22;2994;51.220;4.412;2022-07-23T03:59:28;19.01;69.16
5938;DHT22;2994;51.220;4.412;2022-07-23T04:01:54;19.00;69.19
5938;DHT22;2994;51.220;4.412;2022-07-23T04:04:19;19.00;69.58
5938;DHT22;2994;51.220;4.412;2022-07-23T04:06:45;19.00;69.39
5938;DHT22;2994;51.220;4.412;2022-07-23T04:09:10;18.98;69.05
5938;DHT22;2994;51.220;4.412;2022-07-23T04:11:36;18.96;69.61
5938;DHT22;2994;51.220;4.412;2022-07-23T04:14:02;18.96;69.25
5938;DHT22;2994;51.220;4.412;2022-07-23T04:16:27;18.95;69.60
5938;DHT22;2994;51.220;4.412;2022-07-23T04:18:53;18.93;69.64
5938;DHT22;2994;51.220;4.412;2022-07-23T04:21:19;18.92;69.61
5938;DHT22;2994;51.220;4.412;2022-07-23T04:23:45;18.89;69.44
5938;DHT22;2994;51.220;4.412;2022-07-23T04:26:10;18.91;69.56
5938;DHT22;2994;51.220;4.412;2022-07-23T04:28:36;18.89;69.61
5938;DHT22;2994;51.220;4.412;2022-07-23T04:31:01;18.91;69.37
5938;DHT22;2994;51.220;4.412;2022-07-23T04:33:26;18.88;69.80
5938;DHT22;2994;51.220;4.412;2022-07-23T04:35:52;18.88;69.54
5938;DHT22;2994;51.220;4.412;2022-07-23T04:38:17;18.87;69.56
5938;DHT22;2994;51.220;4.412;2022-07-23T04:40:43;18.91;69.51
5938;DHT22;2994;51.220;4.412;2022-07-23T04:43:08;18.96;69.46
5938;DHT22;2994;51.220;4.412;2022-07-23T04:45:34;18.97;69.04
5938;DHT22;2994;51.220;4.412;2022-07-23T04:47:59;18.98;69.30
5938;DHT22;2994;51.220;4.412;2022-07-23T04:50:24;18.98;69.40
5938;DHT22;2994;51.220;4.412;2022-07-23T04:52:50;18.99;69.49
5938;DHT22;2994;51.220;4.412;2022-07-23T04:55:16;18.97;69.47
5938;DHT22;2994;51.220;4.412;2022-07-23T04:57:41;18.96;69.18
5938;DHT22;2994;51.220;4.412;2022-07-23T05:00:07;18.99;69.26
5938;DHT22;2994;51.220;4.412;2022-07-23T05:02:33;19.00;69.50
5938;DHT22;2994;51.220;4.412;2022-07-23T05:04:58;19.00;69.39
5938;DHT22;2994;51.220;4.412;2022-07-23T05:07:24;19.01;69.47
5938;DHT22;2994;51.220;4.412;2022-07-23T05:09:50;19.00;69.61
5938;DHT22;2994;51.220;4.412;2022-07-23T05:12:15;18.99;69.42
5938;DHT22;2994;51.220;4.412;2022-07-23T05:14:41;18.99;69.34
5938;DHT22;2994;51.220;4.412;2022-07-23T05:17:07;19.00;69.01
5938;DHT22;2994;51.220;4.412;2022-07-23T05:19:33;18.99;69.39
5938;DHT22;2994;51.220;4.412;2022-07-23T05:21:59;19.00;69.38
5938;DHT22;2994;51.220;4.412;2022-07-23T05:24:24;19.02;69.10
5938;DHT22;2994;51.220;4.412;2022-07-23T05:26:50;19.06;69.15
5938;DHT22;2994;51.220;4.412;2022-07-23T05:29:15;19.06;68.67
5938;DHT22;2994;51.220;4.412;2022-07-23T05:31:41;19.10;68.20
5938;DHT22;2994;51.220;4.412;2022-07-23T05:34:06;19.09;67.98
5938;DHT22;2994;51.220;4.412;2022-07-23T05:36:32;19.10;68.49
5938;DHT22;2994;51.220;4.412;2022-07-23T05:38:57;19.11;68.86
5938;DHT22;2994;51.220;4.412;2022-07-23T05:41:23;19.11;68.64
5938;DHT22;2994;51.220;4.412;2022-07-23T05:43:49;19.14;68.60
5938;DHT22;2994;51.220;4.412;2022-07-23T05:46:14;19.16;68.67
5938;DHT22;2994;51.220;4.412;2022-07-23T05:48:40;19.17;69.07
5938;DHT22;2994;51.220;4.412;2022-07-23T05:51:07;19.23;68.29
5938;DHT22;2994;51.220;4.412;2022-07-23T05:53:34;19.27;67.84
5938;DHT22;2994;51.220;4.412;2022-07-23T05:55:59;19.28;67.89
5938;DHT22;2994;51.220;4.412;2022-07-23T05:58:25;19.35;67.37
5938;DHT22;2994;51.220;4.412;2022-07-23T06:00:51;19.40;67.73
5938;DHT22;2994;51.220;4.412;2022-07-23T06:03:16;19.46;67.55
5938;DHT22;2994;51.220;4.412;2022-07-23T06:05:42;19.48;66.72
5938;DHT22;2994;51.220;4.412;2022-07-23T06:08:07;19.54;66.21
5938;DHT22;2994;51.220;4.412;2022-07-23T06:10:32;19.54;66.14
5938;DHT22;2994;51.220;4.412;2022-07-23T06:12:58;19.57;66.16
5938;DHT22;2994;51.220;4.412;2022-07-23T06:15:23;19.59;66.65
5938;DHT22;2994;51.220;4.412;2022-07-23T06:17:49;19.59;66.26
5938;DHT22;2994;51.220;4.412;2022-07-23T06:20:14;19.66;66.18
5938;DHT22;2994;51.220;4.412;2022-07-23T06:22:40;19.61;66.69
5938;DHT22;2994;51.220;4.412;2022-07-23T06:25:07;19.72;66.79
5938;DHT22;2994;51.220;4.412;2022-07-23T06:27:33;19.74;66.68
5938;DHT22;2994;51.220;4.412;2022-07-23T06:29:58;19.79;67.17
5938;DHT22;2994;51.220;4.412;2022-07-23T06:32:24;19.83;67.01
5938;DHT22;2994;51.220;4.412;2022-07-23T06:34:49;19.88;66.88
5938;DHT22;2994;51.220;4.412;2022-07-23T06:37:15;19.89;67.04
5938;DHT22;2994;51.220;4.412;2022-07-23T06:39:40;19.96;66.66
5938;DHT22;2994;51.220;4.412;2022-07-23T06:42:06;19.95;66.44
5938;DHT22;2994;51.220;4.412;2022-07-23T06:44:31;20.01;66.12
5938;DHT22;2994;51.220;4.412;2022-07-23T06:46:57;20.04;66.83
5938;DHT22;2994;51.220;4.412;2022-07-23T06:49:22;20.05;66.79
5938;DHT22;2994;51.220;4.412;2022-07-23T06:51:48;20.10;67.11
5938;DHT22;2994;51.220;4.412;2022-07-23T06:54:13;20.13;65.33
5938;DHT22;2994;51.220;4.412;2022-07-23T06:56:38;20.18;66.13
5938;DHT22;2994;51.220;4.412;2022-07-23T06:59:04;20.20;66.56
5938;DHT22;2994;51.220;4.412;2022-07-23T07:01:29;20.24;66.96
5938;DHT22;2994;51.220;4.412;2022-07-23T07:03:55;20.26;66.78
5938;DHT22;2994;51.220;4.412;2022-07-23T07:06:20;20.31;66.72
5938;DHT22;2994;51.220;4.412;2022-07-23T07:08:46;20.37;67.21
5938;DHT22;2994;51.220;4.412;2022-07-23T07:11:11;20.42;67.42
5938;DHT22;2994;51.220;4.412;2022-07-23T07:13:37;20.25;64.35
5938;DHT22;2994;51.220;4.412;2022-07-23T07:16:04;20.43;63.22
5938;DHT22;2994;51.220;4.412;2022-07-23T07:18:30;20.54;64.10
5938;DHT22;2994;51.220;4.412;2022-07-23T07:20:56;20.62;63.92
5938;DHT22;2994;51.220;4.412;2022-07-23T07:23:22;20.69;65.28
5938;DHT22;2994;51.220;4.412;2022-07-23T07:25:47;20.74;63.47
5938;DHT22;2994;51.220;4.412;2022-07-23T07:28:13;20.80;63.37
5938;DHT22;2994;51.220;4.412;2022-07-23T07:30:38;20.88;63.98
5938;DHT22;2994;51.220;4.412;2022-07-23T07:33:04;20.92;65.11
5938;DHT22;2994;51.220;4.412;2022-07-23T07:35:30;20.98;65.21
5938;DHT22;2994;51.220;4.412;2022-07-23T07:37:57;21.04;65.01
5938;DHT22;2994;51.220;4.412;2022-07-23T07:40:23;21.07;62.82
5938;DHT22;2994;51.220;4.412;2022-07-23T07:42:51;21.10;61.40
5938;DHT22;2994;51.220;4.412;2022-07-23T07:45:19;21.20;60.35
5938;DHT22;2994;51.220;4.412;2022-07-23T07:47:51;21.27;61.46
5938;DHT22;2994;51.220;4.412;2022-07-23T07:50:20;21.35;61.75
5938;DHT22;2994;51.220;4.412;2022-07-23T07:52:46;21.43;61.21
5938;DHT22;2994;51.220;4.412;2022-07-23T07:55:12;21.52;63.60
5938;DHT22;2994;51.220;4.412;2022-07-23T07:57:38;21.52;61.96
5938;DHT22;2994;51.220;4.412;2022-07-23T08:00:05;21.50;60.13
5938;DHT22;2994;51.220;4.412;2022-07-23T08:02:46;21.68;60.44
5938;DHT22;2994;51.220;4.412;2022-07-23T08:05:12;21.80;60.54
5938;DHT22;2994;51.220;4.412;2022-07-23T08:07:37;21.93;58.91
5938;DHT22;2994;51.220;4.412;2022-07-23T08:10:05;21.98;58.30
5938;DHT22;2994;51.220;4.412;2022-07-23T08:12:49;22.14;59.51
5938;DHT22;2994;51.220;4.412;2022-07-23T08:15:16;22.25;61.73
5938;DHT22;2994;51.220;4.412;2022-07-23T08:17:44;22.16;54.96
5938;DHT22;2994;51.220;4.412;2022-07-23T08:20:11;22.27;57.93
5938;DHT22;2994;51.220;4.412;2022-07-23T08:22:50;22.39;56.25
5938;DHT22;2994;51.220;4.412;2022-07-23T08:25:20;22.51;60.09
5938;DHT22;2994;51.220;4.412;2022-07-23T08:27:46;22.57;60.70
5938;DHT22;2994;51.220;4.412;2022-07-23T08:30:12;22.66;59.23
5938;DHT22;2994;51.220;4.412;2022-07-23T08:32:57;22.79;60.31
5938;DHT22;2994;51.220;4.412;2022-07-23T08:37:54;22.96;59.25
5938;DHT22;2994;51.220;4.412;2022-07-23T08:40:20;23.05;58.06
5938;DHT22;2994;51.220;4.412;2022-07-23T08:42:50;23.11;57.36
5938;DHT22;2994;51.220;4.412;2022-07-23T08:45:18;23.21;53.27
5938;DHT22;2994;51.220;4.412;2022-07-23T08:47:44;23.31;51.20
5938;DHT22;2994;51.220;4.412;2022-07-23T08:50:10;23.37;53.26
5938;DHT22;2994;51.220;4.412;2022-07-23T08:52:36;23.36;52.49
5938;DHT22;2994;51.220;4.412;2022-07-23T08:55:03;23.16;54.15
5938;DHT22;2994;51.220;4.412;2022-07-23T08:57:28;23.39;50.81
5938;DHT22;2994;51.220;4.412;2022-07-23T08:59:54;23.51;50.56
5938;DHT22;2994;51.220;4.412;2022-07-23T09:02:19;23.56;50.98
5938;DHT22;2994;51.220;4.412;2022-07-23T09:04:45;23.72;53.65
5938;DHT22;2994;51.220;4.412;2022-07-23T09:07:10;23.76;51.37
5938;DHT22;2994;51.220;4.412;2022-07-23T09:09:36;23.87;50.70
5938;DHT22;2994;51.220;4.412;2022-07-23T09:12:05;24.00;50.82
5938;DHT22;2994;51.220;4.412;2022-07-23T09:14:42;24.06;50.03
5938;DHT22;2994;51.220;4.412;2022-07-23T09:17:18;24.12;48.86
5938;DHT22;2994;51.220;4.412;2022-07-23T09:19:45;24.21;49.29
5938;DHT22;2994;51.220;4.412;2022-07-23T09:22:21;24.35;48.48
5938;DHT22;2994;51.220;4.412;2022-07-23T09:25:12;24.40;47.89
5938;DHT22;2994;51.220;4.412;2022-07-23T09:30:17;24.34;49.56
5938;DHT22;2994;51.220;4.412;2022-07-23T09:32:43;24.53;47.96
5938;DHT22;2994;51.220;4.412;2022-07-23T09:35:08;24.54;47.65
5938;DHT22;2994;51.220;4.412;2022-07-23T09:37:34;24.66;46.88
5938;DHT22;2994;51.220;4.412;2022-07-23T09:40:05;24.69;47.85
5938;DHT22;2994;51.220;4.412;2022-07-23T09:42:30;24.80;49.05
5938;DHT22;2994;51.220;4.412;2022-07-23T09:44:57;24.79;48.57
5938;DHT22;2994;51.220;4.412;2022-07-23T09:47:29;25.01;46.11
5938;DHT22;2994;51.220;4.412;2022-07-23T09:50:08;25.03;45.55
5938;DHT22;2994;51.220;4.412;2022-07-23T09:52:37;24.76;47.73
5938;DHT22;2994;51.220;4.412;2022-07-23T09:55:08;25.00;45.70
5938;DHT22;2994;51.220;4.412;2022-07-23T09:57:34;25.21;46.67
5938;DHT22;2994;51.220;4.412;2022-07-23T10:00:07;25.33;47.73
5938;DHT22;2994;51.220;4.412;2022-07-23T10:02:36;25.43;44.83
5938;DHT22;2994;51.220;4.412;2022-07-23T10:05:03;25.58;46.00
5938;DHT22;2994;51.220;4.412;2022-07-23T10:07:34;25.71;44.26
5938;DHT22;2994;51.220;4.412;2022-07-23T10:10:01;25.72;44.58
5938;DHT22;2994;51.220;4.412;2022-07-23T10:12:27;25.72;42.83
5938;DHT22;2994;51.220;4.412;2022-07-23T10:15:03;25.62;42.81
5938;DHT22;2994;51.220;4.412;2022-07-23T10:17:29;25.54;43.40
5938;DHT22;2994;51.220;4.412;2022-07-23T10:19:55;25.47;46.47
5938;DHT22;2994;51.220;4.412;2022-07-23T10:22:23;25.50;43.58
5938;DHT22;2994;51.220;4.412;2022-07-23T10:27:38;25.62;43.95
5938;DHT22;2994;51.220;4.412;2022-07-23T10:30:11;25.71;46.44
5938;DHT22;2994;51.220;4.412;2022-07-23T10:32:40;25.89;45.38
5938;DHT22;2994;51.220;4.412;2022-07-23T10:35:21;25.99;42.53
5938;DHT22;2994;51.220;4.412;2022-07-23T10:38:11;26.16;42.18
5938;DHT22;2994;51.220;4.412;2022-07-23T10:41:03;26.22;41.63
5938;DHT22;2994;51.220;4.412;2022-07-23T10:43:29;26.17;41.06
5938;DHT22;2994;51.220;4.412;2022-07-23T10:45:55;26.31;44.69
5938;DHT22;2994;51.220;4.412;2022-07-23T10:48:23;26.39;44.96
5938;DHT22;2994;51.220;4.412;2022-07-23T10:51:14;26.52;43.32
5938;DHT22;2994;51.220;4.412;2022-07-23T10:56:50;26.67;40.71
5938;DHT22;2994;51.220;4.412;2022-07-23T10:59:16;26.54;43.43
5938;DHT22;2994;51.220;4.412;2022-07-23T11:01:41;26.70;41.45
5938;DHT22;2994;51.220;4.412;2022-07-23T11:04:07;26.51;43.10
5938;DHT22;2994;51.220;4.412;2022-07-23T11:09:29;26.53;43.55
5938;DHT22;2994;51.220;4.412;2022-07-23T11:15:13;26.58;43.12
5938;DHT22;2994;51.220;4.412;2022-07-23T11:17:59;26.65;42.32
5938;DHT22;2994;51.220;4.412;2022-07-23T11:20:28;26.65;39.58
5938;DHT22;2994;51.220;4.412;2022-07-23T11:22:58;26.79;39.81
5938;DHT22;2994;51.220;4.412;2022-07-23T11:28:08;26.71;41.57
5938;DHT22;2994;51.220;4.412;2022-07-23T11:30:42;26.79;38.78
5938;DHT22;2994;51.220;4.412;2022-07-23T11:35:36;26.97;39.31
5938;DHT22;2994;51.220;4.412;2022-07-23T11:38:07;26.69;41.81
5938;DHT22;2994;51.220;4.412;2022-07-23T11:40:35;26.87;41.15
5938;DHT22;2994;51.220;4.412;2022-07-23T11:43:04;27.07;41.00
5938;DHT22;2994;51.220;4.412;2022-07-23T11:48:00;26.86;42.77
5938;DHT22;2994;51.220;4.412;2022-07-23T11:50:26;27.23;39.79
5938;DHT22;2994;51.220;4.412;2022-07-23T11:52:52;27.08;37.43
5938;DHT22;2994;51.220;4.412;2022-07-23T11:55:18;27.27;39.06
5938;DHT22;2994;51.220;4.412;2022-07-23T11:57:44;27.26;41.87
5938;DHT22;2994;51.220;4.412;2022-07-23T12:00:18;27.24;41.10
5938;DHT22;2994;51.220;4.412;2022-07-23T12:02:52;27.42;40.14
5938;DHT22;2994;51.220;4.412;2022-07-23T12:05:21;27.46;40.47
5938;DHT22;2994;51.220;4.412;2022-07-23T12:07:51;27.66;37.16
5938;DHT22;2994;51.220;4.412;2022-07-23T12:15:19;27.88;40.21
5938;DHT22;2994;51.220;4.412;2022-07-23T12:17:46;27.89;41.32
5938;DHT22;2994;51.220;4.412;2022-07-23T12:20:18;28.04;34.97
5938;DHT22;2994;51.220;4.412;2022-07-23T12:22:47;28.41;35.37
5938;DHT22;2994;51.220;4.412;2022-07-23T12:25:14;28.59;34.27
5938;DHT22;2994;51.220;4.412;2022-07-23T12:27:41;28.23;33.82
5938;DHT22;2994;51.220;4.412;2022-07-23T12:30:17;28.41;37.89
5938;DHT22;2994;51.220;4.412;2022-07-23T12:32:47;28.68;33.64
5938;DHT22;2994;51.220;4.412;2022-07-23T12:35:13;28.68;33.81
5938;DHT22;2994;51.220;4.412;2022-07-23T12:37:41;28.55;32.69
5938;DHT22;2994;51.220;4.412;2022-07-23T12:42:46;28.97;32.19
5938;DHT22;2994;51.220;4.412;2022-07-23T12:45:12;29.09;32.67
5938;DHT22;2994;51.220;4.412;2022-07-23T12:48:01;28.99;32.61
5938;DHT22;2994;51.220;4.412;2022-07-23T12:50:39;29.30;33.69
5938;DHT22;2994;51.220;4.412;2022-07-23T12:53:14;29.32;31.61
5938;DHT22;2994;51.220;4.412;2022-07-23T12:55:41;29.34;32.93
5938;DHT22;2994;51.220;4.412;2022-07-23T12:58:15;29.51;31.40
5938;DHT22;2994;51.220;4.412;2022-07-23T13:03:37;29.85;31.61
5938;DHT22;2994;51.220;4.412;2022-07-23T13:06:04;29.66;29.90
5938;DHT22;2994;51.220;4.412;2022-07-23T13:08:31;29.51;31.25
5938;DHT22;2994;51.220;4.412;2022-07-23T13:10:57;29.64;31.96
5938;DHT22;2994;51.220;4.412;2022-07-23T13:13:26;29.58;30.73
5938;DHT22;2994;51.220;4.412;2022-07-23T13:15:52;29.82;30.34
5938;DHT22;2994;51.220;4.412;2022-07-23T13:18:18;29.77;29.48
5938;DHT22;2994;51.220;4.412;2022-07-23T13:20:45;29.71;30.20
5938;DHT22;2994;51.220;4.412;2022-07-23T13:23:11;29.93;29.87
5938;DHT22;2994;51.220;4.412;2022-07-23T13:25:37;30.10;34.47
5938;DHT22;2994;51.220;4.412;2022-07-23T13:28:02;30.05;28.45
5938;DHT22;2994;51.220;4.412;2022-07-23T13:30:28;30.11;31.22
5938;DHT22;2994;51.220;4.412;2022-07-23T13:32:54;30.22;31.58
5938;DHT22;2994;51.220;4.412;2022-07-23T13:35:19;30.13;28.14
5938;DHT22;2994;51.220;4.412;2022-07-23T13:37:45;29.94;28.93
5938;DHT22;2994;51.220;4.412;2022-07-23T13:40:10;30.05;29.26
5938;DHT22;2994;51.220;4.412;2022-07-23T13:42:36;30.25;29.35
5938;DHT22;2994;51.220;4.412;2022-07-23T13:45:03;30.66;29.15
5938;DHT22;2994;51.220;4.412;2022-07-23T13:47:29;30.44;29.21
5938;DHT22;2994;51.220;4.412;2022-07-23T13:49:54;30.61;29.71
5938;DHT22;2994;51.220;4.412;2022-07-23T13:52:19;30.87;28.57
5938;DHT22;2994;51.220;4.412;2022-07-23T13:54:45;30.81;29.51
5938;DHT22;2994;51.220;4.412;2022-07-23T13:57:10;30.90;28.35
5938;DHT22;2994;51.220;4.412;2022-07-23T13:59:36;30.90;28.97
5938;DHT22;2994;51.220;4.412;2022-07-23T14:02:02;31.15;30.49
5938;DHT22;2994;51.220;4.412;2022-07-23T14:04:28;31.13;29.95
5938;DHT22;2994;51.220;4.412;2022-07-23T14:06:53;31.43;28.23
5938;DHT22;2994;51.220;4.412;2022-07-23T14:09:19;31.34;27.29
5938;DHT22;2994;51.220;4.412;2022-07-23T14:11:44;31.20;27.33
5938;DHT22;2994;51.220;4.412;2022-07-23T14:14:10;31.19;28.29
5938;DHT22;2994;51.220;4.412;2022-07-23T14:16:35;31.53;27.31
5938;DHT22;2994;51.220;4.412;2022-07-23T14:19:01;31.59;29.90
5938;DHT22;2994;51.220;4.412;2022-07-23T14:21:27;31.65;27.16
5938;DHT22;2994;51.220;4.412;2022-07-23T14:23:52;31.79;29.47
5938;DHT22;2994;51.220;4.412;2022-07-23T14:26:19;31.98;30.27
5938;DHT22;2994;51.220;4.412;2022-07-23T14:28:44;32.23;28.40
5938;DHT22;2994;51.220;4.412;2022-07-23T14:31:10;32.19;29.09
5938;DHT22;2994;51.220;4.412;2022-07-23T14:33:35;32.33;27.20
5938;DHT22;2994;51.220;4.412;2022-07-23T14:36:00;32.28;28.73
5938;DHT22;2994;51.220;4.412;2022-07-23T14:38:27;32.38;27.45
5938;DHT22;2994;51.220;4.412;2022-07-23T14:40:52;31.75;27.03
5938;DHT22;2994;51.220;4.412;2022-07-23T14:43:17;31.80;27.22
5938;DHT22;2994;51.220;4.412;2022-07-23T14:45:43;31.93;26.93
5938;DHT22;2994;51.220;4.412;2022-07-23T14:48:08;31.82;30.16
5938;DHT22;2994;51.220;4.412;2022-07-23T14:50:34;31.82;28.98
5938;DHT22;2994;51.220;4.412;2022-07-23T14:52:59;32.07;28.26
5938;DHT22;2994;51.220;4.412;2022-07-23T14:55:25;32.03;27.04
5938;DHT22;2994;51.220;4.412;2022-07-23T14:57:51;32.19;26.75
5938;DHT22;2994;51.220;4.412;2022-07-23T15:00:16;32.17;29.17
5938;DHT22;2994;51.220;4.412;2022-07-23T15:02:42;32.34;28.91
5938;DHT22;2994;51.220;4.412;2022-07-23T15:05:07;32.15;26.27
5938;DHT22;2994;51.220;4.412;2022-07-23T15:07:33;32.41;29.01
5938;DHT22;2994;51.220;4.412;2022-07-23T15:09:58;32.61;29.37
5938;DHT22;2994;51.220;4.412;2022-07-23T15:12:24;32.42;26.36
5938;DHT22;2994;51.220;4.412;2022-07-23T15:14:50;32.43;26.28
5938;DHT22;2994;51.220;4.412;2022-07-23T15:17:15;32.81;26.06
5938;DHT22;2994;51.220;4.412;2022-07-23T15:19:41;33.78;24.72
5938;DHT22;2994;51.220;4.412;2022-07-23T15:22:07;38.44;19.28
5938;DHT22;2994;51.220;4.412;2022-07-23T15:24:32;41.60;15.27
5938;DHT22;2994;51.220;4.412;2022-07-23T15:26:58;44.23;12.78
5938;DHT22;2994;51.220;4.412;2022-07-23T15:29:23;45.49;11.94
5938;DHT22;2994;51.220;4.412;2022-07-23T15:31:49;47.42;9.75
5938;DHT22;2994;51.220;4.412;2022-07-23T15:34:15;49.44;10.08
5938;DHT22;2994;51.220;4.412;2022-07-23T15:36:40;50.47;7.19
5938;DHT22;2994;51.220;4.412;2022-07-23T15:39:06;51.01;8.29
5938;DHT22;2994;51.220;4.412;2022-07-23T15:41:31;51.78;7.80
5938;DHT22;2994;51.220;4.412;2022-07-23T15:43:57;51.72;7.79
5938;DHT22;2994;51.220;4.412;2022-07-23T15:46:23;51.01;6.79
5938;DHT22;2994;51.220;4.412;2022-07-23T15:48:49;51.49;6.95
5938;DHT22;2994;51.220;4.412;2022-07-23T15:51:14;53.69;7.24
5938;DHT22;2994;51.220;4.412;2022-07-23T15:53:41;54.87;5.03
5938;DHT22;2994;51.220;4.412;2022-07-23T15:56:07;55.44;5.81
5938;DHT22;2994;51.220;4.412;2022-07-23T15:58:33;57.16;3.99
5938;DHT22;2994;51.220;4.412;2022-07-23T16:00:59;51.42;6.11
5938;DHT22;2994;51.220;4.412;2022-07-23T16:03:31;52.51;7.38
5938;DHT22;2994;51.220;4.412;2022-07-23T16:05:57;50.17;5.29
5938;DHT22;2994;51.220;4.412;2022-07-23T16:08:22;50.19;7.90
5938;DHT22;2994;51.220;4.412;2022-07-23T16:10:48;49.76;6.68
5938;DHT22;2994;51.220;4.412;2022-07-23T16:13:13;45.86;8.87
5938;DHT22;2994;51.220;4.412;2022-07-23T16:15:40;42.77;11.76
5938;DHT22;2994;51.220;4.412;2022-07-23T16:18:07;41.57;15.44
5938;DHT22;2994;51.220;4.412;2022-07-23T16:20:34;40.14;17.51
5938;DHT22;2994;51.220;4.412;2022-07-23T16:23:00;38.95;18.26
5938;DHT22;2994;51.220;4.412;2022-07-23T16:25:25;37.06;18.93
5938;DHT22;2994;51.220;4.412;2022-07-23T16:27:51;36.19;22.49
5938;DHT22;2994;51.220;4.412;2022-07-23T16:30:17;35.39;21.66
5938;DHT22;2994;51.220;4.412;2022-07-23T16:32:43;34.70;22.50
5938;DHT22;2994;51.220;4.412;2022-07-23T16:35:09;34.05;23.75